1861 Tropical Storm NOT_NAMED (1861275N19299)


IBTrACS version v04r00. Visit IBTrACS website for data access.
Please direct all questions to the IBTrACS Q and A forum

Storm track - Intensity - Wind Radii - Intensity Data - Source Data - All data

Summary Information

Storm ID 1861275N19299
Start Oct 1 12Z
Max Intensity 50 kt (Oct 6 06Z)
End Oct 10 12Z
ATCF IDs
Track status Best track data.

Storm track plot

Map of storm track

Intensity plots

Map of storm track

Radial wind information

No radial wind information for this storm


Position and Intensity Table

BASIN ISO_TIME_________ NATURE LAT LON MLC WIND
degrees north degrees east kts
NA 1861-10-01 12:00:00 TS 18.70 -61.00 30
NA 15:00:00 TS 18.80 -61.61 30
NA 18:00:00 TS 18.90 -62.20 30
NA 21:00:00 TS 19.00 -62.76 30
NA 1861-10-02 00:00:00 TS 19.10 -63.30 30
NA 03:00:00 TS 19.20 -63.85 30
NA 06:00:00 TS 19.30 -64.40 30
NA 09:00:00 TS 19.36 -65.00 32
NA 12:00:00 TS 19.50 -65.50 35
NA 15:00:00 TS 19.81 -65.80 35
NA 18:00:00 TS 20.20 -66.00 35
NA 21:00:00 TS 20.55 -66.25 35
NA 1861-10-03 00:00:00 TS 20.90 -66.50 35
NA 03:00:00 TS 21.26 -66.75 35
NA 06:00:00 TS 21.60 -67.00 35
NA 09:00:00 TS 21.92 -67.26 37
NA 12:00:00 TS 22.20 -67.50 40
NA 15:00:00 TS 22.41 -67.72 40
NA 18:00:00 TS 22.60 -67.90 40
NA 21:00:00 TS 22.80 -68.06 40
NA 1861-10-04 00:00:00 TS 23.00 -68.20 40
NA 03:00:00 TS 23.20 -68.35 40
NA 06:00:00 TS 23.40 -68.50 40
NA 09:00:00 TS 23.59 -68.64 42
NA 12:00:00 TS 23.80 -68.80 45
NA 15:00:00 TS 24.05 -69.00 45
NA 18:00:00 TS 24.30 -69.20 45
NA 21:00:00 TS 24.50 -69.35 45
NA 1861-10-05 00:00:00 TS 24.70 -69.50 45
NA 03:00:00 TS 24.95 -69.70 45
NA 06:00:00 TS 25.20 -69.90 45
NA 09:00:00 TS 25.39 -70.05 45
NA 12:00:00 TS 25.60 -70.20 45
NA 15:00:00 TS 25.89 -70.40 45
NA 18:00:00 TS 26.20 -70.60 45
NA 21:00:00 TS 26.45 -70.76 45
NA 1861-10-06 00:00:00 TS 26.70 -70.90 45
NA 03:00:00 TS 27.00 -71.05 47
NA 06:00:00 TS 27.30 -71.20 50
NA 09:00:00 TS 27.53 -71.35 50
NA 12:00:00 TS 27.80 -71.50 50
NA 15:00:00 TS 28.22 -71.66 50
NA 18:00:00 TS 28.70 -71.80 50
NA 21:00:00 TS 29.19 -71.90 50
NA 1861-10-07 00:00:00 TS 29.60 -72.00 50
NA 03:00:00 TS 29.85 -72.15 50
NA 06:00:00 TS 30.00 -72.30 50
NA 09:00:00 TS 30.14 -72.41 50
NA 12:00:00 TS 30.30 -72.50 50
NA 15:00:00 TS 30.54 -72.61 50
NA 18:00:00 TS 30.80 -72.70 50
NA 21:00:00 TS 31.05 -72.77 50
NA 1861-10-08 00:00:00 TS 31.30 -72.80 50
NA 03:00:00 TS 31.55 -72.81 50
NA 06:00:00 TS 31.80 -72.80 50
NA 09:00:00 TS 32.04 -72.80 47
NA 12:00:00 TS 32.30 -72.80 45
NA 15:00:00 TS 32.60 -72.80 45
NA 18:00:00 TS 32.90 -72.80 45
NA 21:00:00 TS 33.15 -72.81 45
NA 1861-10-09 00:00:00 TS 33.40 -72.80 45
NA 03:00:00 TS 33.70 -72.71 45
NA 06:00:00 TS 34.00 -72.60 45
NA 09:00:00 TS 34.26 -72.63 45
NA 12:00:00 TS 34.50 -72.50 45
NA 15:00:00 TS 34.75 -71.93 45
NA 18:00:00 TS 35.00 -71.20 45
NA 21:00:00 TS 35.25 -70.64 45
NA 1861-10-10 00:00:00 TS 35.50 -70.00 45
NA 03:00:00 TS 35.75 -69.06 45
NA 06:00:00 ET 36.00 -68.20 45
NA 09:00:00 ET 36.25 -67.72 45
NA 12:00:00 ET 36.50 -67.50 45

Source Information

Agency Information
USA
TOKYO
CMA
HKO
NEWDELHI
REUNION
BOM
NADI
WELLINGTON
DS824
TD9636
TD9635
NEUMANN
MLC

All available IBTrACS Data

SEASON BASIN SUBBASIN ISO_TIME_________ NATURE LAT LON DIST2LAND LANDFALL IFLAG USA SSHS MLC LAT MLC LON MLC CLASS MLC WIND STORM SPEED STORM DIR
Year degrees north degrees east km km 1 degrees north degrees east kts kts degrees
1861 NA NA 1861-10-01 12:00:00 TS 18.70 -61.00 486 423 _____________O -1 18.70 -61.00 TD 30 12 280
1861 NA NA 15:00:00 TS 18.80 -61.61 423 362 _____________P -1 18.80 -61.61 TD 30 12 280
1861 NA NA 18:00:00 TS 18.90 -62.20 362 312 _____________O -1 18.90 -62.20 TD 30 11 280
1861 NA NA 21:00:00 TS 19.00 -62.76 302 254 _____________P -1 19.00 -62.76 TD 30 11 281
1861 NA NA 1861-10-02 00:00:00 TS 19.10 -63.30 254 209 _____________O -1 19.10 -63.30 TD 30 11 281
1861 NA NA 03:00:00 TS 19.20 -63.85 200 161 _____________P -1 19.20 -63.85 TD 30 11 281
1861 NA NA 06:00:00 TS 19.30 -64.40 161 124 _____________O -1 19.30 -64.40 TD 30 11 279
1861 NA NA 09:00:00 TS 19.36 -65.00 128 113 _____________P -1 19.36 -65.00 TD 32 11 281
1861 NA NA 12:00:00 TS 19.50 -65.50 123 123 _____________O -1 19.50 -65.50 TS 35 9 301
1861 NA NA 15:00:00 TS 19.81 -65.80 156 156 _____________P -1 19.81 -65.80 TS 35 8 326
1861 NA NA 18:00:00 TS 20.20 -66.00 201 201 _____________O -1 20.20 -66.00 TS 35 9 330
1861 NA NA 21:00:00 TS 20.55 -66.25 234 234 _____________P -1 20.55 -66.25 TS 35 8 326
1861 NA NA 1861-10-03 00:00:00 TS 20.90 -66.50 279 279 _____________O -1 20.90 -66.50 TS 35 9 327
1861 NA NA 03:00:00 TS 21.26 -66.75 324 324 _____________P -1 21.26 -66.75 TS 35 8 326
1861 NA NA 06:00:00 TS 21.60 -67.00 351 351 _____________O -1 21.60 -67.00 TS 35 8 325
1861 NA NA 09:00:00 TS 21.92 -67.26 357 357 _____________P -1 21.92 -67.26 TS 37 8 322
1861 NA NA 12:00:00 TS 22.20 -67.50 374 374 _____________O -1 22.20 -67.50 TS 40 7 319
1861 NA NA 15:00:00 TS 22.41 -67.72 384 384 _____________P -1 22.41 -67.72 TS 40 5 317
1861 NA NA 18:00:00 TS 22.60 -67.90 396 396 _____________O -1 22.60 -67.90 TS 40 5 321
1861 NA NA 21:00:00 TS 22.80 -68.06 408 408 _____________P -1 22.80 -68.06 TS 40 5 325
1861 NA NA 1861-10-04 00:00:00 TS 23.00 -68.20 423 423 _____________O -1 23.00 -68.20 TS 40 5 326
1861 NA NA 03:00:00 TS 23.20 -68.35 435 435 _____________P -1 23.20 -68.35 TS 40 5 325
1861 NA NA 06:00:00 TS 23.40 -68.50 452 452 _____________O -1 23.40 -68.50 TS 40 5 326
1861 NA NA 09:00:00 TS 23.59 -68.64 470 466 _____________P -1 23.59 -68.64 TS 42 5 326
1861 NA NA 12:00:00 TS 23.80 -68.80 484 484 _____________O -1 23.80 -68.80 TS 45 6 324
1861 NA NA 15:00:00 TS 24.05 -69.00 508 505 _____________P -1 24.05 -69.00 TS 45 6 324
1861 NA NA 18:00:00 TS 24.30 -69.20 521 521 _____________O -1 24.30 -69.20 TS 45 6 325
1861 NA NA 21:00:00 TS 24.50 -69.35 521 521 _____________P -1 24.50 -69.35 TS 45 5 326
1861 NA NA 1861-10-05 00:00:00 TS 24.70 -69.50 530 530 _____________O -1 24.70 -69.50 TS 45 6 325
1861 NA NA 03:00:00 TS 24.95 -69.70 542 536 _____________P -1 24.95 -69.70 TS 45 6 324
1861 NA NA 06:00:00 TS 25.20 -69.90 547 547 _____________O -1 25.20 -69.90 TS 45 5 324
1861 NA NA 09:00:00 TS 25.39 -70.05 554 554 _____________P -1 25.39 -70.05 TS 45 5 326
1861 NA NA 12:00:00 TS 25.60 -70.20 568 568 _____________O -1 25.60 -70.20 TS 45 6 328
1861 NA NA 15:00:00 TS 25.89 -70.40 588 588 _____________P -1 25.89 -70.40 TS 45 7 329
1861 NA NA 18:00:00 TS 26.20 -70.60 609 609 _____________O -1 26.20 -70.60 TS 45 6 330
1861 NA NA 21:00:00 TS 26.45 -70.76 622 622 _____________P -1 26.45 -70.76 TS 45 6 332
1861 NA NA 1861-10-06 00:00:00 TS 26.70 -70.90 650 650 _____________O -1 26.70 -70.90 TS 45 6 335
1861 NA NA 03:00:00 TS 27.00 -71.05 676 676 _____________P -1 27.00 -71.05 TS 47 7 336
1861 NA NA 06:00:00 TS 27.30 -71.20 705 705 _____________O -1 27.30 -71.20 TS 50 6 333
1861 NA NA 09:00:00 TS 27.53 -71.35 709 708 _____________P -1 27.53 -71.35 TS 50 6 332
1861 NA NA 12:00:00 TS 27.80 -71.50 713 708 _____________O -1 27.80 -71.50 TS 50 7 339
1861 NA NA 15:00:00 TS 28.22 -71.66 714 714 _____________P -1 28.22 -71.66 TS 50 9 344
1861 NA NA 18:00:00 TS 28.70 -71.80 733 733 _____________O -1 28.70 -71.80 TS 50 10 348
1861 NA NA 21:00:00 TS 29.19 -71.90 750 708 _____________P -1 29.19 -71.90 TS 50 9 349
1861 NA NA 1861-10-07 00:00:00 TS 29.60 -72.00 708 684 _____________O -1 29.60 -72.00 TS 50 7 342
1861 NA NA 03:00:00 TS 29.85 -72.15 679 655 _____________P -1 29.85 -72.15 TS 50 5 327
1861 NA NA 06:00:00 TS 30.00 -72.30 655 640 _____________O -1 30.00 -72.30 TS 50 4 323
1861 NA NA 09:00:00 TS 30.14 -72.41 640 617 _____________P -1 30.14 -72.41 TS 50 3 330
1861 NA NA 12:00:00 TS 30.30 -72.50 617 593 _____________O -1 30.30 -72.50 TS 50 4 337
1861 NA NA 15:00:00 TS 30.54 -72.61 593 561 _____________P -1 30.54 -72.61 TS 50 5 341
1861 NA NA 18:00:00 TS 30.80 -72.70 561 537 _____________O -1 30.80 -72.70 TS 50 5 345
1861 NA NA 21:00:00 TS 31.05 -72.77 537 512 _____________P -1 31.05 -72.77 TS 50 5 350
1861 NA NA 1861-10-08 00:00:00 TS 31.30 -72.80 512 495 _____________O -1 31.30 -72.80 TS 50 5 355
1861 NA NA 03:00:00 TS 31.55 -72.81 487 471 _____________P -1 31.55 -72.81 TS 50 5 2
1861 NA NA 06:00:00 TS 31.80 -72.80 471 456 _____________O -1 31.80 -72.80 TS 50 5 1
1861 NA NA 09:00:00 TS 32.04 -72.80 456 434 _____________P -1 32.04 -72.80 TS 47 5 2
1861 NA NA 12:00:00 TS 32.30 -72.80 434 412 _____________O -1 32.30 -72.80 TS 45 6 3
1861 NA NA 15:00:00 TS 32.60 -72.80 412 391 _____________P -1 32.60 -72.80 TS 45 6 1
1861 NA NA 18:00:00 TS 32.90 -72.80 391 379 _____________O -1 32.90 -72.80 TS 45 6 0
1861 NA NA 21:00:00 TS 33.15 -72.81 379 361 _____________P -1 33.15 -72.81 TS 45 5 2
1861 NA NA 1861-10-09 00:00:00 TS 33.40 -72.80 361 346 _____________O -1 33.40 -72.80 TS 45 6 9
1861 NA NA 03:00:00 TS 33.70 -72.71 346 331 _____________P -1 33.70 -72.71 TS 45 6 16
1861 NA NA 06:00:00 TS 34.00 -72.60 331 318 _____________O -1 34.00 -72.60 TS 45 6 7
1861 NA NA 09:00:00 TS 34.26 -72.63 311 300 _____________P -1 34.26 -72.63 TS 45 5 9
1861 NA NA 12:00:00 TS 34.50 -72.50 308 308 _____________O -1 34.50 -72.50 TS 45 8 49
1861 NA NA 15:00:00 TS 34.75 -71.93 344 344 _____________P -1 34.75 -71.93 TS 45 12 65
1861 NA NA 18:00:00 TS 35.00 -71.20 398 398 _____________O -1 35.00 -71.20 TS 45 12 65
1861 NA NA 21:00:00 TS 35.25 -70.64 447 445 _____________P -1 35.25 -70.64 TS 45 11 63
1861 NA NA 1861-10-10 00:00:00 TS 35.50 -70.00 496 496 _____________O -1 35.50 -70.00 TS 45 14 69
1861 NA NA 03:00:00 TS 35.75 -69.06 575 575 _____________P -1 35.75 -69.06 TS 45 15 71
1861 NA NA 06:00:00 ET 36.00 -68.20 649 637 _____________O -1 36.00 -68.20 EX 45 12 65
1861 NA NA 09:00:00 ET 36.25 -67.72 643 617 _____________P -1 36.25 -67.72 EX 45 8 49
1861 NA NA 12:00:00 ET 36.50 -67.50 617 _____________O -1 36.50 -67.50 EX 45 6 36